Time;durP1;ratioP1;P1;durP2;ratioP2;P2;SDS_P1;SDS_P2;PMS_P1;PMS_P2;Temp;Humidity;BMP_temperature;BMP_pressure;BME280_temperature;BME280_humidity;BME280_pressure;Samples;Min_cycle;Max_cycle;Signal;HPM_P1;HPM_P2
2021/07/09 00:01:28;;;;;;;31.20;24.95;;;17.40;99.90;;;;;;5012713;28;20121;-54
2021/07/09 00:03:53;;;;;;;31.73;23.42;;;17.40;99.90;;;;;;5012967;28;20454;-55
2021/07/09 00:06:21;;;;;;;29.98;25.25;;;17.30;99.90;;;;;;5012580;28;20409;-54
2021/07/09 00:08:47;;;;;;;31.73;25.50;;;17.10;99.90;;;;;;5012121;28;20061;-54
2021/07/09 00:11:14;;;;;;;36.85;26.00;;;17.10;99.90;;;;;;5012246;28;20033;-54
2021/07/09 00:13:39;;;;;;;35.05;27.83;;;17.10;99.90;;;;;;5012390;28;20029;-54
2021/07/09 00:16:05;;;;;;;39.03;27.42;;;17.10;99.90;;;;;;5011088;28;20047;-54
2021/07/09 00:18:31;;;;;;;36.83;28.08;;;17.10;99.90;;;;;;5011003;28;20494;-55
2021/07/09 00:20:57;;;;;;;32.83;25.95;;;17.10;99.90;;;;;;5012147;28;20058;-54
2021/07/09 00:23:23;;;;;;;34.63;26.75;;;17.10;99.90;;;;;;5012218;28;20446;-55
2021/07/09 00:25:49;;;;;;;31.35;24.70;;;17.00;99.90;;;;;;5011583;28;20076;-54
2021/07/09 00:28:14;;;;;;;33.28;26.00;;;16.90;99.90;;;;;;5012074;28;20022;-54
2021/07/09 00:30:40;;;;;;;36.70;26.58;;;16.80;99.90;;;;;;5011862;28;20053;-55
2021/07/09 00:33:06;;;;;;;28.35;24.20;;;16.80;99.90;;;;;;5011643;28;20124;-54
2021/07/09 00:35:31;;;;;;;33.60;24.75;;;16.70;99.90;;;;;;5011993;28;20032;-55
2021/07/09 00:37:57;;;;;;;30.95;23.05;;;16.70;99.90;;;;;;5012092;28;20455;-54
2021/07/09 00:40:23;;;;;;;29.45;24.55;;;16.70;99.90;;;;;;5011787;28;20030;-55
2021/07/09 00:42:48;;;;;;;28.65;24.20;;;16.70;99.90;;;;;;5012099;28;20053;-54
2021/07/09 00:45:14;;;;;;;30.23;25.48;;;16.70;99.90;;;;;;5011946;28;20029;-54
2021/07/09 00:47:44;;;;;;;31.40;22.58;;;16.70;99.90;;;;;;5011640;28;20044;-54
2021/07/09 00:50:11;;;;;;;27.75;22.17;;;16.60;99.90;;;;;;5011873;28;20025;-54
2021/07/09 00:52:37;;;;;;;25.40;20.77;;;16.60;99.90;;;;;;5010322;28;20098;-54
2021/07/09 00:55:04;;;;;;;22.52;18.67;;;16.60;99.90;;;;;;5010391;28;20527;-55
2021/07/09 00:57:30;;;;;;;22.50;18.58;;;16.50;99.90;;;;;;5011465;28;20153;-54
2021/07/09 00:59:56;;;;;;;25.38;19.38;;;16.50;99.90;;;;;;5011407;28;20105;-55
2021/07/09 01:02:23;;;;;;;23.17;17.73;;;16.50;99.90;;;;;;5011414;28;20026;-55
2021/07/09 01:04:56;;;;;;;23.67;18.38;;;16.40;99.90;;;;;;5011631;28;20029;-54
2021/07/09 01:07:25;;;;;;;23.00;17.65;;;16.40;99.90;;;;;;5010312;28;20092;-54
2021/07/09 01:09:51;;;;;;;20.05;16.70;;;16.30;99.90;;;;;;5011426;28;20092;-54
2021/07/09 01:12:19;;;;;;;27.17;15.95;;;16.20;99.90;;;;;;5011341;28;20368;-55
2021/07/09 01:14:45;;;;;;;21.08;16.02;;;16.20;99.90;;;;;;5011435;28;20030;-54
2021/07/09 01:17:12;;;;;;;19.67;14.75;;;16.20;99.90;;;;;;5011393;28;20033;-54
2021/07/09 01:19:38;;;;;;;19.83;14.73;;;16.20;99.90;;;;;;5011262;28;20034;-55
2021/07/09 01:22:06;;;;;;;20.98;14.73;;;16.10;99.90;;;;;;5011279;28;20026;-54
2021/07/09 01:24:32;;;;;;;17.80;13.95;;;16.10;99.90;;;;;;5011261;28;20053;-55
2021/07/09 01:26:58;;;;;;;20.02;13.40;;;16.10;99.90;;;;;;5011199;28;20025;-55
2021/07/09 01:29:24;;;;;;;21.02;12.95;;;16.10;99.90;;;;;;5011845;28;20493;-55
2021/07/09 01:31:49;;;;;;;18.48;12.63;;;16.20;99.90;;;;;;5011383;28;20022;-54
2021/07/09 01:34:15;;;;;;;18.55;12.40;;;16.10;99.90;;;;;;5011264;28;20081;-55
2021/07/09 01:36:41;;;;;;;16.90;13.27;;;16.00;99.90;;;;;;5012543;28;20030;-55
2021/07/09 01:39:06;;;;;;;17.25;12.15;;;16.00;99.90;;;;;;5015160;28;20100;-55
2021/07/09 01:41:32;;;;;;;16.75;12.10;;;16.00;99.90;;;;;;5015430;28;20022;-55
2021/07/09 01:43:58;;;;;;;19.30;11.95;;;16.00;99.90;;;;;;5015243;28;20033;-55
2021/07/09 01:46:24;;;;;;;17.08;11.32;;;16.00;99.90;;;;;;5015048;28;20030;-55
2021/07/09 01:48:49;;;;;;;17.17;11.65;;;16.00;99.90;;;;;;5014800;28;20549;-55
2021/07/09 01:51:15;;;;;;;17.05;11.50;;;16.00;99.90;;;;;;5015094;28;20037;-55
2021/07/09 01:53:41;;;;;;;18.92;11.93;;;16.00;99.90;;;;;;5015001;28;20394;-55
2021/07/09 01:56:06;;;;;;;17.75;11.73;;;16.00;99.90;;;;;;5013852;28;20032;-55
2021/07/09 01:58:32;;;;;;;18.92;11.70;;;16.00;99.90;;;;;;5014769;28;20101;-55
2021/07/09 02:00:58;;;;;;;15.95;11.75;;;15.90;99.90;;;;;;5014761;28;20018;-55
2021/07/09 02:03:23;;;;;;;16.88;11.82;;;15.90;99.90;;;;;;5014830;28;20401;-55
2021/07/09 02:05:49;;;;;;;19.83;11.40;;;15.90;99.90;;;;;;5014727;28;20472;-55
2021/07/09 02:08:14;;;;;;;17.02;11.43;;;15.90;99.90;;;;;;5014652;28;20101;-55
2021/07/09 02:10:43;;;;;;;16.30;12.30;;;15.90;99.90;;;;;;5014686;28;20100;-55
2021/07/09 02:13:10;;;;;;;17.50;11.55;;;15.90;99.90;;;;;;5014541;28;20435;-55
2021/07/09 02:15:38;;;;;;;17.83;11.82;;;15.80;99.90;;;;;;5014474;28;20100;-55
2021/07/09 02:18:05;;;;;;;18.50;12.00;;;15.70;99.90;;;;;;5014548;28;20029;-55
2021/07/09 02:20:32;;;;;;;17.55;12.00;;;15.70;99.90;;;;;;5014734;28;20044;-55
2021/07/09 02:22:59;;;;;;;20.80;11.95;;;15.70;99.90;;;;;;5014413;28;20026;-55
2021/07/09 02:25:25;;;;;;;19.70;12.05;;;15.70;99.90;;;;;;5014375;28;20026;-55
2021/07/09 02:27:52;;;;;;;18.35;12.60;;;15.70;99.90;;;;;;5014212;28;20391;-55
2021/07/09 02:30:19;;;;;;;19.73;12.82;;;15.60;99.90;;;;;;5014232;28;20501;-55
2021/07/09 02:32:46;;;;;;;21.95;12.18;;;15.60;99.90;;;;;;5013757;28;20073;-55
2021/07/09 02:35:15;;;;;;;22.20;12.05;;;15.60;99.90;;;;;;5013000;28;20076;-55
2021/07/09 02:37:42;;;;;;;21.15;12.75;;;15.60;99.90;;;;;;5012842;28;20034;-55
2021/07/09 02:40:09;;;;;;;19.98;12.20;;;15.50;99.90;;;;;;5012810;28;20117;-55
2021/07/09 02:42:35;;;;;;;19.25;11.82;;;15.50;99.90;;;;;;5012938;28;20145;-55
2021/07/09 02:45:01;;;;;;;16.80;12.00;;;15.50;99.90;;;;;;5012933;28;20029;-55
2021/07/09 02:47:27;;;;;;;21.48;12.57;;;15.50;99.90;;;;;;5012506;28;20044;-55
2021/07/09 02:49:52;;;;;;;17.73;12.35;;;15.50;99.90;;;;;;5012545;28;20037;-55
2021/07/09 02:52:18;;;;;;;17.60;12.15;;;15.60;99.90;;;;;;5011363;28;20033;-55
2021/07/09 02:54:43;;;;;;;20.95;11.65;;;15.70;99.90;;;;;;5012862;28;20035;-55
2021/07/09 02:57:09;;;;;;;19.75;11.68;;;15.60;99.90;;;;;;5012671;28;20019;-55
2021/07/09 02:59:35;;;;;;;24.80;11.48;;;15.50;99.90;;;;;;5012522;28;20033;-55
2021/07/09 03:02:00;;;;;;;18.40;11.32;;;15.60;99.90;;;;;;5012724;28;20018;-55
2021/07/09 03:04:26;;;;;;;20.27;12.48;;;15.60;99.90;;;;;;5012537;28;20030;-55
2021/07/09 03:06:52;;;;;;;20.63;12.07;;;15.70;99.90;;;;;;5012533;28;20022;-55
2021/07/09 03:09:18;;;;;;;21.05;12.15;;;15.50;99.90;;;;;;5012385;28;20391;-55
2021/07/09 03:11:44;;;;;;;18.70;12.18;;;15.40;99.90;;;;;;5012607;28;20041;-55
2021/07/09 03:14:10;;;;;;;17.00;12.18;;;15.30;99.90;;;;;;5012411;28;20037;-55
2021/07/09 03:16:36;;;;;;;20.02;13.35;;;15.30;99.90;;;;;;5012322;28;20522;-55
2021/07/09 03:19:05;;;;;;;19.33;13.10;;;15.20;99.90;;;;;;5012504;28;20065;-55
2021/07/09 03:21:32;;;;;;;21.35;13.13;;;15.20;99.90;;;;;;5012386;28;20018;-55
2021/07/09 03:23:58;;;;;;;20.85;13.40;;;15.10;99.90;;;;;;5012406;28;20494;-55
2021/07/09 03:26:24;;;;;;;21.50;13.55;;;15.00;99.90;;;;;;5012116;28;20026;-55
2021/07/09 03:28:49;;;;;;;20.35;13.85;;;15.00;99.90;;;;;;5010701;28;20053;-55
2021/07/09 03:31:15;;;;;;;25.45;14.00;;;14.90;99.90;;;;;;5012392;28;20083;-55
2021/07/09 03:33:40;;;;;;;22.13;13.93;;;14.90;99.90;;;;;;4974851;28;1092712;-55
2021/07/09 03:36:06;;;;;;;25.95;13.80;;;14.90;99.90;;;;;;5011632;28;20030;-55
2021/07/09 03:38:32;;;;;;;25.50;14.52;;;14.80;99.90;;;;;;5012924;28;20091;-55
2021/07/09 03:40:58;;;;;;;22.58;14.30;;;14.80;99.90;;;;;;5012984;28;20117;-55
2021/07/09 03:43:23;;;;;;;24.73;14.75;;;14.80;99.90;;;;;;5013075;28;20562;-55
2021/07/09 03:45:49;;;;;;;24.13;13.68;;;14.70;99.90;;;;;;5012765;28;20029;-55
2021/07/09 03:48:15;;;;;;;22.42;15.02;;;14.70;99.90;;;;;;5012819;28;20030;-55
2021/07/09 03:50:41;;;;;;;21.27;14.65;;;14.70;99.90;;;;;;5012938;28;20022;-55
2021/07/09 03:53:07;;;;;;;25.58;14.45;;;14.70;99.90;;;;;;5012786;28;20417;-55
2021/07/09 03:55:33;;;;;;;23.05;14.60;;;14.60;99.90;;;;;;5013086;28;20056;-55
2021/07/09 03:57:58;;;;;;;22.33;13.95;;;14.50;99.90;;;;;;5011494;28;20117;-55
2021/07/09 04:00:24;;;;;;;20.73;14.40;;;14.40;99.90;;;;;;5011914;28;20038;-55
2021/07/09 04:02:50;;;;;;;24.92;14.15;;;14.30;99.90;;;;;;5012889;28;20080;-55
2021/07/09 04:05:15;;;;;;;26.70;15.52;;;14.30;99.90;;;;;;5012579;28;20407;-54
2021/07/09 04:07:41;;;;;;;23.98;14.98;;;14.30;99.90;;;;;;5012495;28;20021;-55
2021/07/09 04:10:08;;;;;;;23.15;15.18;;;14.40;99.90;;;;;;5012413;28;20054;-55
2021/07/09 04:12:33;;;;;;;19.92;13.68;;;14.40;99.90;;;;;;5012461;28;20022;-55
2021/07/09 04:14:59;;;;;;;24.50;13.85;;;14.40;99.90;;;;;;5012631;28;20030;-55
2021/07/09 04:17:25;;;;;;;23.98;14.25;;;14.40;99.90;;;;;;5012554;28;20022;-55
2021/07/09 04:19:51;;;;;;;20.30;14.10;;;14.40;99.90;;;;;;5012202;28;20038;-55
2021/07/09 04:22:17;;;;;;;17.83;13.18;;;14.40;99.90;;;;;;5012316;28;20022;-55
2021/07/09 04:24:43;;;;;;;18.85;13.82;;;14.30;99.90;;;;;;5012439;28;20026;-55
2021/07/09 04:27:09;;;;;;;22.08;13.60;;;14.20;99.90;;;;;;5012138;28;20026;-55
2021/07/09 04:29:35;;;;;;;27.77;14.82;;;14.20;99.90;;;;;;5011968;28;20502;-55
2021/07/09 04:32:01;;;;;;;20.92;14.35;;;14.10;99.90;;;;;;5012235;28;20033;-55
2021/07/09 04:34:26;;;;;;;24.20;14.73;;;14.20;99.90;;;;;;5012061;28;20046;-55
2021/07/09 04:36:52;;;;;;;23.85;15.05;;;14.30;99.90;;;;;;5011909;28;20061;-55
2021/07/09 04:39:17;;;;;;;20.27;13.65;;;14.20;99.90;;;;;;5011780;28;20026;-55
2021/07/09 04:41:43;;;;;;;21.02;13.10;;;14.10;99.90;;;;;;5011938;28;20359;-55
2021/07/09 04:44:09;;;;;;;21.52;13.40;;;14.10;99.90;;;;;;5011958;28;20029;-55
2021/07/09 04:46:35;;;;;;;18.50;12.80;;;14.10;99.90;;;;;;5011714;28;20101;-55
2021/07/09 04:49:00;;;;;;;21.67;13.18;;;14.10;99.90;;;;;;5011620;28;20491;-55
2021/07/09 04:51:26;;;;;;;17.05;12.82;;;14.10;99.90;;;;;;5011764;28;20033;-55
2021/07/09 04:53:52;;;;;;;21.83;13.20;;;14.20;99.90;;;;;;5011743;28;20034;-55
2021/07/09 04:56:17;;;;;;;19.05;13.32;;;14.30;99.90;;;;;;5011706;28;20479;-55
2021/07/09 04:58:43;;;;;;;21.27;13.05;;;14.40;99.90;;;;;;5010211;28;20418;-55
2021/07/09 05:01:09;;;;;;;19.15;13.23;;;14.60;99.90;;;;;;5011504;28;20022;-55
2021/07/09 05:03:34;;;;;;;16.83;12.30;;;14.70;99.90;;;;;;5010276;28;20068;-55
2021/07/09 05:06:00;;;;;;;20.25;13.52;;;14.70;99.90;;;;;;5011467;28;20026;-55
2021/07/09 05:08:25;;;;;;;20.35;12.02;;;14.70;99.90;;;;;;5011422;28;20026;-55
2021/07/09 05:10:51;;;;;;;19.35;12.75;;;14.70;99.90;;;;;;5011498;28;20104;-55
2021/07/09 05:13:17;;;;;;;18.85;11.70;;;14.80;99.90;;;;;;5011419;28;20030;-55
2021/07/09 05:15:43;;;;;;;20.15;12.77;;;14.90;99.90;;;;;;5011476;28;20052;-55
2021/07/09 05:18:09;;;;;;;19.27;12.38;;;14.90;99.90;;;;;;5011276;28;20017;-54
2021/07/09 05:20:34;;;;;;;15.88;11.52;;;15.00;99.90;;;;;;5011200;28;20529;-55
2021/07/09 05:23:00;;;;;;;18.60;12.13;;;15.00;99.90;;;;;;5011197;28;20053;-55
2021/07/09 05:25:26;;;;;;;19.45;12.32;;;15.10;99.90;;;;;;5011402;28;20379;-55
2021/07/09 05:27:52;;;;;;;18.52;12.68;;;15.10;99.90;;;;;;5011196;28;20098;-55
2021/07/09 05:30:18;;;;;;;19.02;12.45;;;15.10;99.90;;;;;;5011355;28;20034;-55
2021/07/09 05:32:45;;;;;;;18.27;13.27;;;15.20;99.90;;;;;;5009675;28;20052;-55
2021/07/09 05:35:11;;;;;;;24.50;12.30;;;15.40;99.90;;;;;;5011335;28;20392;-55
2021/07/09 05:37:37;;;;;;;31.67;13.10;;;15.50;99.90;;;;;;5011209;28;20493;-55
2021/07/09 05:40:04;;;;;;;28.92;13.38;;;15.50;99.90;;;;;;5010861;28;20117;-55
2021/07/09 05:42:29;;;;;;;18.17;12.43;;;15.50;99.90;;;;;;5014522;28;20029;-55
2021/07/09 05:44:55;;;;;;;18.92;12.40;;;15.60;99.90;;;;;;5019804;28;20034;-55
2021/07/09 05:47:21;;;;;;;15.93;11.80;;;15.70;99.90;;;;;;5029762;28;20033;-55
2021/07/09 05:49:46;;;;;;;16.65;11.38;;;16.00;99.90;;;;;;5032875;28;20030;-55
2021/07/09 05:52:12;;;;;;;19.00;11.18;;;16.20;99.90;;;;;;5031200;28;20423;-55
2021/07/09 05:54:38;;;;;;;17.38;12.68;;;16.20;99.90;;;;;;5017636;28;20403;-55
2021/07/09 05:57:04;;;;;;;17.75;12.05;;;16.20;99.90;;;;;;5012884;28;20105;-55
2021/07/09 05:59:30;;;;;;;17.70;12.52;;;16.40;99.90;;;;;;5011942;28;20126;-55
2021/07/09 06:01:56;;;;;;;18.42;13.00;;;16.50;99.90;;;;;;5027795;28;20441;-55
2021/07/09 06:04:22;;;;;;;17.52;12.80;;;16.40;99.90;;;;;;5026640;28;20506;-55
2021/07/09 06:06:48;;;;;;;18.27;12.70;;;16.30;99.90;;;;;;5023153;28;20045;-55
2021/07/09 06:09:13;;;;;;;18.55;12.27;;;16.40;99.90;;;;;;5025417;28;20062;-55
2021/07/09 06:11:39;;;;;;;18.27;12.93;;;16.50;99.90;;;;;;5018336;28;20042;-55
2021/07/09 06:14:05;;;;;;;31.60;14.80;;;16.50;99.90;;;;;;5015689;28;20079;-55
2021/07/09 06:16:31;;;;;;;23.13;13.07;;;16.50;99.90;;;;;;5031700;28;20116;-55
2021/07/09 06:18:57;;;;;;;23.15;12.93;;;16.70;99.90;;;;;;5019965;28;20026;-55
2021/07/09 06:21:23;;;;;;;19.90;12.48;;;17.00;99.90;;;;;;5021941;28;20140;-55
2021/07/09 06:23:49;;;;;;;20.15;12.57;;;17.00;99.90;;;;;;5030118;28;20510;-55
2021/07/09 06:26:15;;;;;;;17.95;12.65;;;16.90;99.90;;;;;;5027292;28;20029;-55
2021/07/09 06:28:41;;;;;;;20.08;12.80;;;17.00;99.90;;;;;;5026014;28;20038;-54
2021/07/09 06:31:06;;;;;;;20.77;14.05;;;17.00;99.90;;;;;;5021662;28;20029;-55
2021/07/09 06:33:32;;;;;;;19.13;12.93;;;16.90;99.90;;;;;;5030872;28;20045;-54
2021/07/09 06:35:58;;;;;;;17.13;11.85;;;16.80;99.90;;;;;;5033425;28;20479;-54
2021/07/09 06:38:23;;;;;;;21.77;12.97;;;17.00;99.90;;;;;;5024519;28;20021;-56
2021/07/09 06:40:49;;;;;;;17.23;12.38;;;16.90;99.90;;;;;;5016957;28;20092;-55
2021/07/09 06:43:14;;;;;;;18.13;13.05;;;16.80;99.90;;;;;;5026813;28;20033;-55
2021/07/09 06:45:41;;;;;;;22.27;12.85;;;16.80;99.90;;;;;;5015654;28;20101;-55
2021/07/09 06:48:07;;;;;;;20.15;13.20;;;16.70;99.90;;;;;;5025569;28;20071;-55
2021/07/09 06:50:37;;;;;;;20.50;12.63;;;16.90;99.90;;;;;;5029355;28;20147;-55
2021/07/09 06:53:06;;;;;;;19.35;12.48;;;17.20;99.90;;;;;;5015106;28;20085;-55
2021/07/09 06:55:32;;;;;;;19.58;11.82;;;17.20;99.90;;;;;;5031766;28;20056;-54
2021/07/09 06:57:58;;;;;;;21.83;12.27;;;17.00;99.90;;;;;;5018456;28;20066;-55
2021/07/09 07:00:23;;;;;;;21.83;13.05;;;17.10;99.90;;;;;;5014869;28;20030;-54
2021/07/09 07:02:49;;;;;;;21.73;12.75;;;17.10;99.90;;;;;;5033295;28;20029;-55
2021/07/09 07:05:16;;;;;;;18.08;12.38;;;17.00;99.90;;;;;;5028226;28;20117;-55
2021/07/09 07:07:42;;;;;;;23.88;13.13;;;16.80;99.90;;;;;;5033787;28;20064;-55
2021/07/09 07:10:09;;;;;;;16.65;11.43;;;16.80;99.90;;;;;;5029521;28;20018;-54
2021/07/09 07:12:36;;;;;;;13.88;10.05;;;17.40;99.90;;;;;;5031984;28;20025;-55
2021/07/09 07:15:04;;;;;;;12.27;9.23;;;18.70;99.90;;;;;;5032905;28;20083;-55
2021/07/09 07:17:31;;;;;;;13.80;9.82;;;19.30;99.90;;;;;;5034359;28;20037;-55
2021/07/09 07:19:57;;;;;;;12.85;9.45;;;18.30;99.90;;;;;;5033625;28;20039;-55
2021/07/09 07:22:23;;;;;;;13.18;9.88;;;17.70;99.90;;;;;;5024630;28;20087;-54
2021/07/09 07:24:50;;;;;;;13.68;9.73;;;17.30;99.90;;;;;;5020827;28;20033;-55
2021/07/09 07:27:16;;;;;;;11.98;9.82;;;17.40;99.90;;;;;;5019842;28;20405;-55
2021/07/09 07:29:42;;;;;;;12.90;8.27;;;17.90;99.90;;;;;;5030279;28;20026;-55
2021/07/09 07:32:07;;;;;;;9.57;6.97;;;18.50;99.90;;;;;;5018344;28;20075;-54
2021/07/09 07:34:33;;;;;;;8.55;7.63;;;18.70;99.90;;;;;;5029160;28;20040;-55
2021/07/09 07:36:59;;;;;;;10.77;8.13;;;18.50;99.90;;;;;;5032188;28;20021;-54
2021/07/09 07:39:24;;;;;;;11.18;8.48;;;18.10;99.90;;;;;;5031593;28;20567;-55
2021/07/09 07:41:50;;;;;;;11.07;8.70;;;18.40;99.90;;;;;;5033000;28;20030;-55
2021/07/09 07:44:15;;;;;;;11.07;8.93;;;18.70;99.90;;;;;;5032143;28;20037;-55
2021/07/09 07:46:41;;;;;;;11.02;8.40;;;19.10;99.90;;;;;;5033037;28;20100;-55
2021/07/09 07:49:07;;;;;;;9.98;7.68;;;19.20;99.90;;;;;;5019282;28;20037;-55
2021/07/09 07:51:32;;;;;;;11.93;7.93;;;19.10;99.90;;;;;;5033321;28;20025;-54
2021/07/09 07:53:58;;;;;;;12.85;7.57;;;19.20;99.90;;;;;;5016389;28;20034;-54
2021/07/09 07:56:24;;;;;;;9.95;7.50;;;19.20;99.90;;;;;;5026112;28;20112;-55
2021/07/09 07:58:52;;;;;;;10.05;6.78;;;19.10;99.90;;;;;;5030658;28;20445;-54
2021/07/09 08:01:18;;;;;;;10.82;7.22;;;19.60;99.90;;;;;;5033517;28;20039;-54
2021/07/09 08:03:44;;;;;;;9.80;7.25;;;20.20;99.90;;;;;;5018628;28;20050;-55
2021/07/09 08:06:09;;;;;;;9.98;6.80;;;20.80;99.90;;;;;;5032210;28;20056;-54
2021/07/09 08:08:37;;;;;;;8.50;6.47;;;21.00;99.90;;;;;;5022775;28;20022;-54
2021/07/09 08:11:03;;;;;;;6.95;6.15;;;20.40;99.90;;;;;;5031372;28;20421;-54
2021/07/09 08:13:29;;;;;;;9.68;6.90;;;19.80;99.90;;;;;;5033144;28;20096;-54
2021/07/09 08:15:54;;;;;;;11.52;7.68;;;19.00;99.90;;;;;;5030077;28;20064;-55
2021/07/09 08:18:20;;;;;;;12.88;8.18;;;18.80;99.90;;;;;;5029556;28;20026;-55
2021/07/09 08:20:46;;;;;;;11.52;7.72;;;18.50;99.90;;;;;;5026417;28;20083;-54
2021/07/09 08:23:11;;;;;;;11.02;7.72;;;18.50;99.90;;;;;;5028642;28;20426;-54
2021/07/09 08:25:37;;;;;;;11.38;7.75;;;18.80;99.90;;;;;;5031014;28;20021;-54
2021/07/09 08:28:03;;;;;;;10.50;7.95;;;18.50;99.90;;;;;;5032650;28;20425;-54
2021/07/09 08:30:29;;;;;;;11.25;7.70;;;18.60;99.90;;;;;;5020937;28;20026;-54
2021/07/09 08:32:54;;;;;;;11.25;8.05;;;18.30;99.90;;;;;;5022031;28;20524;-54
2021/07/09 08:35:20;;;;;;;12.38;8.70;;;18.30;99.90;;;;;;5022586;28;20113;-54
2021/07/09 08:37:46;;;;;;;13.23;8.10;;;18.20;99.90;;;;;;5020042;28;20246;-54
2021/07/09 08:40:12;;;;;;;10.52;8.02;;;18.40;99.90;;;;;;5025167;28;20076;-54
2021/07/09 08:42:39;;;;;;;10.45;7.72;;;18.60;99.90;;;;;;5031699;28;20048;-54
2021/07/09 08:45:06;;;;;;;9.80;7.60;;;18.60;99.90;;;;;;5023679;28;20022;-54
2021/07/09 08:47:33;;;;;;;8.60;7.28;;;19.00;99.90;;;;;;5023410;28;20030;-54
2021/07/09 08:50:02;;;;;;;11.18;8.52;;;19.10;99.90;;;;;;5021175;28;20477;-54
2021/07/09 08:52:28;;;;;;;16.48;8.85;;;18.80;99.90;;;;;;5027892;28;20444;-54
2021/07/09 08:54:53;;;;;;;14.25;9.23;;;18.70;99.90;;;;;;5033877;28;20147;-54
2021/07/09 08:57:19;;;;;;;15.25;10.02;;;18.60;99.90;;;;;;5031383;28;20034;-54
2021/07/09 08:59:44;;;;;;;15.30;10.75;;;18.60;99.90;;;;;;5030804;28;20033;-54
2021/07/09 09:02:10;;;;;;;14.95;10.85;;;18.50;99.90;;;;;;5030892;28;20117;-54
2021/07/09 09:04:37;;;;;;;13.23;10.27;;;18.70;99.90;;;;;;5031236;28;20656;-54
2021/07/09 09:07:09;;;;;;;16.88;12.13;;;19.00;99.90;;;;;;5030071;28;20021;-54
2021/07/09 09:09:37;;;;;;;16.67;13.43;;;18.70;99.90;;;;;;5031325;28;20029;-54
2021/07/09 09:12:14;;;;;;;19.10;15.25;;;18.50;99.90;;;;;;5030405;28;20381;-54
2021/07/09 09:14:43;;;;;;;19.20;13.95;;;18.50;99.90;;;;;;5030267;28;20503;-54
2021/07/09 09:17:25;;;;;;;20.25;15.32;;;18.60;99.90;;;;;;5030430;28;20108;-54
2021/07/09 09:20:11;;;;;;;17.67;15.10;;;18.50;99.90;;;;;;5031131;28;20057;-54
2021/07/09 09:22:52;;;;;;;18.52;15.88;;;18.70;99.90;;;;;;5031033;28;20025;-54
2021/07/09 09:25:23;;;;;;;18.45;15.07;;;18.70;99.90;;;;;;5031821;28;20093;-54
2021/07/09 09:28:08;;;;;;;19.58;16.63;;;18.70;99.90;;;;;;5032029;28;20049;-54
2021/07/09 09:30:36;;;;;;;16.85;15.05;;;18.80;99.90;;;;;;5031598;28;20413;-54
2021/07/09 09:33:05;;;;;;;21.50;17.02;;;18.80;99.90;;;;;;5031415;28;20049;-54
2021/07/09 09:35:34;;;;;;;21.90;17.95;;;18.90;99.90;;;;;;5031563;28;20056;-54
2021/07/09 09:38:03;;;;;;;19.50;15.60;;;18.80;99.90;;;;;;5031138;28;20044;-54
2021/07/09 09:40:31;;;;;;;16.83;13.35;;;19.10;99.90;;;;;;5031018;28;20518;-54
2021/07/09 09:42:57;;;;;;;17.30;13.77;;;19.10;99.90;;;;;;5029759;28;20100;-54
2021/07/09 09:45:25;;;;;;;16.65;12.88;;;19.30;99.90;;;;;;5030247;28;20538;-54
2021/07/09 09:47:51;;;;;;;13.05;10.70;;;19.10;99.90;;;;;;5030457;28;20024;-54
2021/07/09 09:50:20;;;;;;;13.00;10.07;;;19.00;99.90;;;;;;5030669;28;20029;-55
2021/07/09 09:52:46;;;;;;;10.05;8.98;;;19.20;99.90;;;;;;5030586;28;20027;-54
2021/07/09 09:55:29;;;;;;;12.75;9.63;;;19.50;99.90;;;;;;5028631;28;20398;-54
2021/07/09 09:58:09;;;;;;;16.58;9.65;;;19.60;99.90;;;;;;5030219;28;20026;-54
2021/07/09 10:00:36;;;;;;;14.02;9.73;;;19.70;99.90;;;;;;5034467;28;20057;-54
2021/07/09 10:03:05;;;;;;;10.65;9.02;;;19.90;99.90;;;;;;5034580;28;20025;-54
2021/07/09 10:05:35;;;;;;;13.70;9.18;;;19.90;99.90;;;;;;5034703;28;20394;-54
2021/07/09 10:08:01;;;;;;;13.27;10.02;;;19.60;99.90;;;;;;5034602;28;20025;-54
2021/07/09 10:10:29;;;;;;;13.85;10.13;;;19.10;99.90;;;;;;5034697;28;20490;-54
2021/07/09 10:12:56;;;;;;;16.63;11.45;;;18.90;99.90;;;;;;5034321;28;20525;-54
2021/07/09 10:15:26;;;;;;;13.05;9.82;;;19.00;99.90;;;;;;5033662;28;20044;-54
2021/07/09 10:17:54;;;;;;;14.70;10.30;;;19.00;99.90;;;;;;5032894;28;20033;-54
2021/07/09 10:20:21;;;;;;;13.02;9.95;;;19.00;99.90;;;;;;5033637;28;20030;-54
2021/07/09 10:22:48;;;;;;;10.70;7.85;;;19.60;99.90;;;;;;5033528;28;20071;-54
2021/07/09 10:25:16;;;;;;;11.35;8.93;;;20.00;99.90;;;;;;5033654;28;20026;-54
2021/07/09 10:27:43;;;;;;;12.90;9.40;;;19.60;99.90;;;;;;5033652;28;20071;-54
2021/07/09 10:30:09;;;;;;;14.43;9.70;;;19.50;99.90;;;;;;5033878;28;20104;-54
2021/07/09 10:32:35;;;;;;;12.52;9.20;;;19.40;99.90;;;;;;5033956;28;20160;-54
2021/07/09 10:35:06;;;;;;;13.23;9.90;;;19.10;99.90;;;;;;5033958;28;20031;-54
2021/07/09 10:37:32;;;;;;;14.20;10.18;;;19.10;99.90;;;;;;5032556;28;20052;-54
2021/07/09 10:40:04;;;;;;;15.75;9.25;;;19.20;99.90;;;;;;5033864;28;20109;-54
2021/07/09 10:42:40;;;;;;;12.13;9.43;;;19.60;99.90;;;;;;5032573;28;20033;-54
2021/07/09 10:45:12;;;;;;;12.02;9.55;;;19.90;99.90;;;;;;5033873;28;20029;-54
2021/07/09 10:47:47;;;;;;;15.07;10.55;;;19.70;99.90;;;;;;5032667;28;20110;-54
2021/07/09 10:50:15;;;;;;;11.27;8.93;;;19.30;99.90;;;;;;5033702;28;20030;-53
2021/07/09 10:52:58;;;;;;;12.98;8.45;;;19.50;99.90;;;;;;5033699;28;20426;-54
2021/07/09 10:55:27;;;;;;;10.82;7.95;;;19.80;99.90;;;;;;5033851;28;20071;-54
2021/07/09 10:58:08;;;;;;;11.63;8.48;;;20.00;99.90;;;;;;5033544;28;20025;-54
2021/07/09 11:00:47;;;;;;;11.13;7.72;;;20.20;99.90;;;;;;5033819;28;20030;-54
2021/07/09 11:03:42;;;;;;;8.80;7.85;;;20.60;99.90;;;;;;5033469;28;20070;-54
2021/07/09 11:06:16;;;;;;;9.90;8.20;;;20.60;99.90;;;;;;5033277;28;20435;-54
2021/07/09 11:08:53;;;;;;;11.27;8.10;;;20.30;99.90;;;;;;5033562;28;20021;-54
2021/07/09 11:11:38;;;;;;;9.98;7.93;;;20.40;99.90;;;;;;5033342;28;20376;-54
2021/07/09 11:14:08;;;;;;;12.00;8.32;;;20.20;99.90;;;;;;5033354;28;20478;-54
2021/07/09 11:16:38;;;;;;;12.60;8.10;;;19.70;99.90;;;;;;5033061;28;20021;-54
2021/07/09 11:19:17;;;;;;;11.43;8.30;;;19.50;99.90;;;;;;5032947;28;20033;-54
2021/07/09 11:21:48;;;;;;;11.70;8.55;;;19.50;99.90;;;;;;5033359;28;20041;-54
2021/07/09 11:24:17;;;;;;;9.55;7.35;;;19.60;99.90;;;;;;5033264;28;20359;-54
2021/07/09 11:26:45;;;;;;;11.63;7.72;;;20.00;99.90;;;;;;5032869;28;20032;-54
2021/07/09 11:29:20;;;;;;;13.70;7.82;;;20.30;99.90;;;;;;5032894;28;20108;-54
2021/07/09 11:31:46;;;;;;;11.82;7.60;;;20.50;99.90;;;;;;5032689;28;20433;-54
2021/07/09 11:34:13;;;;;;;12.82;7.50;;;20.50;99.90;;;;;;5032685;28;20049;-54
2021/07/09 11:36:49;;;;;;;10.40;7.57;;;20.50;99.90;;;;;;5031463;28;20026;-53
2021/07/09 11:39:32;;;;;;;9.45;6.85;;;20.50;99.90;;;;;;5032607;28;20118;-54
2021/07/09 11:42:17;;;;;;;9.75;6.53;;;21.10;99.90;;;;;;5032700;28;20493;-54
2021/07/09 11:45:10;;;;;;;11.00;6.63;;;21.20;99.90;;;;;;5032807;28;20556;-54
2021/07/09 11:47:37;;;;;;;;;;;21.90;99.90;;;;;;5032539;28;20117;-54
2021/07/09 11:50:20;;;;;;;9.20;6.40;;;21.90;99.90;;;;;;5032453;28;20400;-54
2021/07/09 11:52:50;;;;;;;11.48;6.47;;;21.70;99.90;;;;;;5030997;28;20433;-54
2021/07/09 11:55:18;;;;;;;8.45;6.32;;;21.20;99.90;;;;;;5031231;28;20057;-54
2021/07/09 11:57:45;;;;;;;10.45;6.80;;;21.10;99.90;;;;;;5032644;28;20417;-54
2021/07/09 12:00:13;;;;;;;10.65;7.10;;;20.90;99.90;;;;;;5032155;28;20029;-54
2021/07/09 12:02:40;;;;;;;9.43;6.63;;;20.90;99.90;;;;;;5032431;28;20029;-54
2021/07/09 12:05:07;;;;;;;10.18;6.90;;;21.60;99.90;;;;;;5032287;28;20439;-54
2021/07/09 12:07:33;;;;;;;9.52;6.28;;;21.80;99.90;;;;;;5032137;28;20047;-54
2021/07/09 12:10:10;;;;;;;9.40;6.03;;;21.70;99.90;;;;;;5030736;28;20435;-54
2021/07/09 12:13:03;;;;;;;10.68;6.05;;;21.70;99.90;;;;;;5032000;28;20079;-54
2021/07/09 12:15:36;;;;;;;9.38;5.47;;;21.80;99.90;;;;;;5032115;28;20542;-54
2021/07/09 12:18:06;;;;;;;9.13;6.05;;;21.90;99.90;;;;;;5030691;28;20083;-54
2021/07/09 12:20:37;;;;;;;12.27;7.38;;;21.80;99.90;;;;;;5031110;28;20040;-54
2021/07/09 12:23:14;;;;;;;11.45;6.95;;;21.40;99.90;;;;;;5031897;28;20426;-54
2021/07/09 12:25:43;;;;;;;9.25;6.70;;;21.00;99.90;;;;;;5031851;28;20025;-54
2021/07/09 12:28:14;;;;;;;7.22;5.55;;;20.90;99.90;;;;;;5031695;28;20108;-54
2021/07/09 12:30:47;;;;;;;8.95;6.75;;;20.90;99.90;;;;;;5032025;28;20478;-54
2021/07/09 12:33:26;;;;;;;9.43;6.22;;;21.10;99.90;;;;;;5030225;28;20049;-54